sensor_id;sensor_type;location;lat;lon;timestamp;pressure;altitude;pressure_sealevel;temperature;humidity
71795;BME280;59641;45.188;5.712;2023-06-10T00:01:00;98837.84;;;23.93;60.49
71795;BME280;59641;45.188;5.712;2023-06-10T00:03:26;98835.41;;;23.92;60.33
71795;BME280;59641;45.188;5.712;2023-06-10T00:05:51;98839.75;;;23.93;60.29
71795;BME280;59641;45.188;5.712;2023-06-10T00:08:17;98841.69;;;23.92;60.38
71795;BME280;59641;45.188;5.712;2023-06-10T00:10:44;98838.16;;;23.92;60.13
71795;BME280;59641;45.188;5.712;2023-06-10T00:13:10;98834.63;;;23.91;60.28
71795;BME280;59641;45.188;5.712;2023-06-10T00:15:37;98834.94;;;23.90;60.37
71795;BME280;59641;45.188;5.712;2023-06-10T00:18:03;98828.31;;;23.91;60.15
71795;BME280;59641;45.188;5.712;2023-06-10T00:20:29;98835.72;;;23.90;60.28
71795;BME280;59641;45.188;5.712;2023-06-10T00:22:55;98835.09;;;23.93;60.31
71795;BME280;59641;45.188;5.712;2023-06-10T00:25:22;98829.63;;;23.93;60.07
71795;BME280;59641;45.188;5.712;2023-06-10T00:27:48;98836.22;;;23.92;59.83
71795;BME280;59641;45.188;5.712;2023-06-10T00:30:13;98835.91;;;23.94;59.83
71795;BME280;59641;45.188;5.712;2023-06-10T00:32:39;98830.44;;;23.94;59.75
71795;BME280;59641;45.188;5.712;2023-06-10T00:35:05;98824.94;;;23.94;59.72
71795;BME280;59641;45.188;5.712;2023-06-10T00:37:31;98825.75;;;23.94;59.53
71795;BME280;59641;45.188;5.712;2023-06-10T00:39:57;98820.56;;;23.93;59.58
71795;BME280;59641;45.188;5.712;2023-06-10T00:42:23;98817.34;;;23.91;59.56
71795;BME280;59641;45.188;5.712;2023-06-10T00:44:50;98814.59;;;23.91;59.42
71795;BME280;59641;45.188;5.712;2023-06-10T00:47:16;98818.19;;;23.91;59.31
71795;BME280;59641;45.188;5.712;2023-06-10T00:49:41;98818.34;;;23.86;58.88
71795;BME280;59641;45.188;5.712;2023-06-10T00:52:08;98816.06;;;23.79;58.87
71795;BME280;59641;45.188;5.712;2023-06-10T00:54:34;98816.72;;;23.76;59.19
71795;BME280;59641;45.188;5.712;2023-06-10T00:57:00;98817.81;;;23.75;58.99
71795;BME280;59641;45.188;5.712;2023-06-10T00:59:28;98820.56;;;23.75;58.92
71795;BME280;59641;45.188;5.712;2023-06-10T01:01:53;98814.28;;;23.75;58.98
71795;BME280;59641;45.188;5.712;2023-06-10T01:04:20;98819.25;;;23.73;58.91
71795;BME280;59641;45.188;5.712;2023-06-10T01:06:50;98827.19;;;23.74;58.90
71795;BME280;59641;45.188;5.712;2023-06-10T01:14:54;98823.59;;;23.65;59.51
71795;BME280;59641;45.188;5.712;2023-06-10T01:17:20;98826.97;;;23.62;59.65
71795;BME280;59641;45.188;5.712;2023-06-10T01:19:54;98828.44;;;23.59;59.93
71795;BME280;59641;45.188;5.712;2023-06-10T01:22:20;98819.72;;;23.57;60.51
71795;BME280;59641;45.188;5.712;2023-06-10T01:24:47;98828.72;;;23.58;59.98
71795;BME280;59641;45.188;5.712;2023-06-10T01:27:17;98828.44;;;23.59;59.97
71795;BME280;59641;45.188;5.712;2023-06-10T01:29:46;98835.97;;;23.54;60.19
71795;BME280;59641;45.188;5.712;2023-06-10T01:32:29;98831.28;;;23.46;60.34
71795;BME280;59641;45.188;5.712;2023-06-10T01:34:57;98834.97;;;23.41;60.76
71795;BME280;59641;45.188;5.712;2023-06-10T01:37:26;98838.00;;;23.39;61.05
71795;BME280;59641;45.188;5.712;2023-06-10T01:39:52;98829.16;;;23.43;60.67
71795;BME280;59641;45.188;5.712;2023-06-10T01:42:20;98834.13;;;23.32;60.48
71795;BME280;59641;45.188;5.712;2023-06-10T01:44:45;98839.44;;;23.28;60.71
71795;BME280;59641;45.188;5.712;2023-06-10T01:47:11;98842.78;;;23.25;60.78
71795;BME280;59641;45.188;5.712;2023-06-10T01:49:36;98851.50;;;23.27;61.13
71795;BME280;59641;45.188;5.712;2023-06-10T01:52:02;98854.53;;;23.26;60.83
71795;BME280;59641;45.188;5.712;2023-06-10T01:54:28;98852.16;;;23.24;60.99
71795;BME280;59641;45.188;5.712;2023-06-10T01:56:53;98850.50;;;23.23;60.64
71795;BME280;59641;45.188;5.712;2023-06-10T01:59:18;98859.06;;;23.22;60.79
71795;BME280;59641;45.188;5.712;2023-06-10T02:01:44;98852.78;;;23.21;61.09
71795;BME280;59641;45.188;5.712;2023-06-10T02:04:09;98859.84;;;23.22;61.44
71795;BME280;59641;45.188;5.712;2023-06-10T02:06:34;98858.72;;;23.23;61.24
71795;BME280;59641;45.188;5.712;2023-06-10T02:09:01;98857.63;;;23.24;61.45
71795;BME280;59641;45.188;5.712;2023-06-10T02:11:26;98860.50;;;23.28;61.09
71795;BME280;59641;45.188;5.712;2023-06-10T02:13:52;98858.59;;;23.28;61.20
71795;BME280;59641;45.188;5.712;2023-06-10T02:16:17;98854.75;;;23.29;61.15
71795;BME280;59641;45.188;5.712;2023-06-10T02:18:43;98862.16;;;23.29;61.28
71795;BME280;59641;45.188;5.712;2023-06-10T02:21:09;98860.22;;;23.29;60.69
71795;BME280;59641;45.188;5.712;2023-06-10T02:23:34;98857.78;;;23.28;60.99
71795;BME280;59641;45.188;5.712;2023-06-10T02:26:00;98865.50;;;23.26;61.16
71795;BME280;59641;45.188;5.712;2023-06-10T02:28:25;98872.91;;;23.25;61.12
71795;BME280;59641;45.188;5.712;2023-06-10T02:30:51;98865.50;;;23.26;60.86
71795;BME280;59641;45.188;5.712;2023-06-10T02:33:17;98868.56;;;23.24;60.91
71795;BME280;59641;45.188;5.712;2023-06-10T02:35:43;98872.41;;;23.23;61.10
71795;BME280;59641;45.188;5.712;2023-06-10T02:38:08;98866.13;;;23.23;61.17
71795;BME280;59641;45.188;5.712;2023-06-10T02:40:33;98867.78;;;23.24;61.13
71795;BME280;59641;45.188;5.712;2023-06-10T02:42:59;98865.50;;;23.26;61.04
71795;BME280;59641;45.188;5.712;2023-06-10T02:45:25;98870.97;;;23.26;61.08
71795;BME280;59641;45.188;5.712;2023-06-10T02:47:50;98867.13;;;23.27;61.25
71795;BME280;59641;45.188;5.712;2023-06-10T02:50:16;98866.00;;;23.28;61.06
71795;BME280;59641;45.188;5.712;2023-06-10T02:52:41;98857.78;;;23.28;61.16
71795;BME280;59641;45.188;5.712;2023-06-10T02:55:07;98862.94;;;23.29;61.04
71795;BME280;59641;45.188;5.712;2023-06-10T02:57:32;98865.38;;;23.31;61.11
71795;BME280;59641;45.188;5.712;2023-06-10T02:59:58;98864.25;;;23.32;60.74
71795;BME280;59641;45.188;5.712;2023-06-10T03:02:24;98870.53;;;23.32;60.86
71795;BME280;59641;45.188;5.712;2023-06-10T03:04:56;98872.94;;;23.34;60.92
71795;BME280;59641;45.188;5.712;2023-06-10T03:07:21;98874.25;;;23.36;60.57
71795;BME280;59641;45.188;5.712;2023-06-10T03:09:46;98875.69;;;23.34;61.06
71795;BME280;59641;45.188;5.712;2023-06-10T03:12:12;98878.44;;;23.34;60.84
71795;BME280;59641;45.188;5.712;2023-06-10T03:14:38;98879.22;;;23.34;60.80
71795;BME280;59641;45.188;5.712;2023-06-10T03:17:04;98870.22;;;23.34;60.80
71795;BME280;59641;45.188;5.712;2023-06-10T03:19:30;98874.56;;;23.35;60.71
71795;BME280;59641;45.188;5.712;2023-06-10T03:22:15;98875.69;;;23.34;60.63
71795;BME280;59641;45.188;5.712;2023-06-10T03:24:41;98877.94;;;23.32;60.70
71795;BME280;59641;45.188;5.712;2023-06-10T03:27:09;98877.13;;;23.31;60.66
71795;BME280;59641;45.188;5.712;2023-06-10T03:29:36;98878.72;;;23.32;60.48
71795;BME280;59641;45.188;5.712;2023-06-10T03:32:02;98880.97;;;23.30;60.32
71795;BME280;59641;45.188;5.712;2023-06-10T03:34:27;98879.06;;;23.31;60.09
71795;BME280;59641;45.188;5.712;2023-06-10T03:36:53;98880.19;;;23.30;59.99
71795;BME280;59641;45.188;5.712;2023-06-10T03:39:18;98882.09;;;23.29;60.35
71795;BME280;59641;45.188;5.712;2023-06-10T03:41:43;98880.50;;;23.28;60.05
71795;BME280;59641;45.188;5.712;2023-06-10T03:44:09;98877.78;;;23.28;59.92
71795;BME280;59641;45.188;5.712;2023-06-10T03:46:34;98875.03;;;23.28;60.10
71795;BME280;59641;45.188;5.712;2023-06-10T03:48:59;98881.31;;;23.29;60.11
71795;BME280;59641;45.188;5.712;2023-06-10T03:51:28;98881.31;;;23.29;60.27
71795;BME280;59641;45.188;5.712;2023-06-10T03:53:54;98880.50;;;23.28;60.18
71795;BME280;59641;45.188;5.712;2023-06-10T03:56:19;98878.06;;;23.27;59.95
71795;BME280;59641;45.188;5.712;2023-06-10T03:58:44;98877.28;;;23.26;60.03
71795;BME280;59641;45.188;5.712;2023-06-10T04:01:10;98875.34;;;23.27;60.21
71795;BME280;59641;45.188;5.712;2023-06-10T04:03:35;98872.59;;;23.27;60.18
71795;BME280;59641;45.188;5.712;2023-06-10T04:06:01;98877.59;;;23.25;60.10
71795;BME280;59641;45.188;5.712;2023-06-10T04:08:27;98882.25;;;23.24;60.19
71795;BME280;59641;45.188;5.712;2023-06-10T04:10:53;98881.13;;;23.25;59.91
71795;BME280;59641;45.188;5.712;2023-06-10T04:13:18;98880.00;;;23.26;60.00
71795;BME280;59641;45.188;5.712;2023-06-10T04:15:45;98880.81;;;23.27;59.95
71795;BME280;59641;45.188;5.712;2023-06-10T04:18:10;98876.94;;;23.28;59.95
71795;BME280;59641;45.188;5.712;2023-06-10T04:20:36;98880.50;;;23.28;59.70
71795;BME280;59641;45.188;5.712;2023-06-10T04:23:01;98880.00;;;23.26;59.74
71795;BME280;59641;45.188;5.712;2023-06-10T04:25:26;98881.13;;;23.25;59.77
71795;BME280;59641;45.188;5.712;2023-06-10T04:27:53;98883.06;;;23.25;59.66
71795;BME280;59641;45.188;5.712;2023-06-10T04:30:19;98893.19;;;23.24;59.74
71795;BME280;59641;45.188;5.712;2023-06-10T04:32:44;98883.06;;;23.25;60.11
71795;BME280;59641;45.188;5.712;2023-06-10T04:35:13;98890.13;;;23.26;60.18
71795;BME280;59641;45.188;5.712;2023-06-10T04:37:39;98889.03;;;23.27;60.26
71795;BME280;59641;45.188;5.712;2023-06-10T04:40:05;98885.97;;;23.28;60.47
71795;BME280;59641;45.188;5.712;2023-06-10T04:42:31;98893.06;;;23.29;60.28
71795;BME280;59641;45.188;5.712;2023-06-10T04:44:56;98897.41;;;23.30;59.93
71795;BME280;59641;45.188;5.712;2023-06-10T04:47:22;98907.53;;;23.30;59.76
71795;BME280;59641;45.188;5.712;2023-06-10T04:49:48;98901.91;;;23.26;59.71
71795;BME280;59641;45.188;5.712;2023-06-10T04:52:13;98906.88;;;23.24;60.00
71795;BME280;59641;45.188;5.712;2023-06-10T04:54:39;98902.06;;;23.21;59.82
71795;BME280;59641;45.188;5.712;2023-06-10T04:57:05;98904.28;;;23.19;59.72
71795;BME280;59641;45.188;5.712;2023-06-10T04:59:32;98909.75;;;23.19;59.81
71795;BME280;59641;45.188;5.712;2023-06-10T05:01:58;98907.03;;;23.19;59.87
71795;BME280;59641;45.188;5.712;2023-06-10T05:04:24;98901.06;;;23.17;60.06
71795;BME280;59641;45.188;5.712;2023-06-10T05:06:49;98905.72;;;23.16;59.92
71795;BME280;59641;45.188;5.712;2023-06-10T05:09:14;98897.53;;;23.16;60.16
71795;BME280;59641;45.188;5.712;2023-06-10T05:11:40;98895.88;;;23.15;59.93
71795;BME280;59641;45.188;5.712;2023-06-10T05:14:06;98897.81;;;23.15;59.66
71795;BME280;59641;45.188;5.712;2023-06-10T05:16:31;98897.03;;;23.14;60.04
71795;BME280;59641;45.188;5.712;2023-06-10T05:18:57;98905.53;;;23.13;59.94
71795;BME280;59641;45.188;5.712;2023-06-10T05:21:22;98903.94;;;23.12;59.94
71795;BME280;59641;45.188;5.712;2023-06-10T05:23:48;98899.56;;;23.11;59.77
71795;BME280;59641;45.188;5.712;2023-06-10T05:26:13;98896.31;;;23.09;60.12
71795;BME280;59641;45.188;5.712;2023-06-10T05:28:39;98901.81;;;23.09;60.33
71795;BME280;59641;45.188;5.712;2023-06-10T05:31:04;98897.97;;;23.10;60.22
71795;BME280;59641;45.188;5.712;2023-06-10T05:33:29;98898.75;;;23.10;60.03
71795;BME280;59641;45.188;5.712;2023-06-10T05:35:55;98894.09;;;23.11;59.92
71795;BME280;59641;45.188;5.712;2023-06-10T05:38:20;98892.16;;;23.11;59.90
71795;BME280;59641;45.188;5.712;2023-06-10T05:40:46;98898.75;;;23.10;59.62
71795;BME280;59641;45.188;5.712;2023-06-10T05:43:11;98895.22;;;23.10;59.71
71795;BME280;59641;45.188;5.712;2023-06-10T05:45:37;98896.03;;;23.10;59.68
71795;BME280;59641;45.188;5.712;2023-06-10T05:48:03;98890.84;;;23.09;59.91
71795;BME280;59641;45.188;5.712;2023-06-10T05:50:28;98896.03;;;23.10;59.96
71795;BME280;59641;45.188;5.712;2023-06-10T05:52:53;98893.00;;;23.12;60.16
71795;BME280;59641;45.188;5.712;2023-06-10T05:55:20;98902.78;;;23.13;60.08
71795;BME280;59641;45.188;5.712;2023-06-10T05:57:45;98895.38;;;23.13;60.18
71795;BME280;59641;45.188;5.712;2023-06-10T06:00:11;98898.13;;;23.13;60.19
71795;BME280;59641;45.188;5.712;2023-06-10T06:02:37;98895.09;;;23.15;60.28
71795;BME280;59641;45.188;5.712;2023-06-10T06:05:02;98892.34;;;23.15;60.15
71795;BME280;59641;45.188;5.712;2023-06-10T06:07:28;98887.69;;;23.15;60.19
71795;BME280;59641;45.188;5.712;2023-06-10T06:09:53;98896.69;;;23.16;60.21
71795;BME280;59641;45.188;5.712;2023-06-10T06:12:18;98893.16;;;23.15;60.41
71795;BME280;59641;45.188;5.712;2023-06-10T06:14:44;98897.81;;;23.15;60.59
71795;BME280;59641;45.188;5.712;2023-06-10T06:17:10;98893.16;;;23.15;60.43
71795;BME280;59641;45.188;5.712;2023-06-10T06:19:35;98895.88;;;23.15;60.63
71795;BME280;59641;45.188;5.712;2023-06-10T06:22:00;98888.81;;;23.14;60.72
71795;BME280;59641;45.188;5.712;2023-06-10T06:24:26;98890.91;;;23.17;60.89
71795;BME280;59641;45.188;5.712;2023-06-10T06:26:51;98893.50;;;23.23;60.55
71795;BME280;59641;45.188;5.712;2023-06-10T06:29:17;98890.47;;;23.24;60.62
71795;BME280;59641;45.188;5.712;2023-06-10T06:31:43;98894.81;;;23.25;61.22
71795;BME280;59641;45.188;5.712;2023-06-10T06:34:08;98889.31;;;23.25;60.83
71795;BME280;59641;45.188;5.712;2023-06-10T06:36:34;98894.00;;;23.25;60.72
71795;BME280;59641;45.188;5.712;2023-06-10T06:38:59;98891.09;;;23.21;61.16
71795;BME280;59641;45.188;5.712;2023-06-10T06:41:28;98896.56;;;23.21;61.20
71795;BME280;59641;45.188;5.712;2023-06-10T06:43:56;98891.91;;;23.22;60.93
71795;BME280;59641;45.188;5.712;2023-06-10T06:46:21;98896.38;;;23.17;61.04
71795;BME280;59641;45.188;5.712;2023-06-10T06:48:47;98897.81;;;23.15;61.62
71795;BME280;59641;45.188;5.712;2023-06-10T06:51:13;98899.75;;;23.14;61.42
71795;BME280;59641;45.188;5.712;2023-06-10T06:53:39;98895.88;;;23.15;60.94
71795;BME280;59641;45.188;5.712;2023-06-10T06:56:10;98896.22;;;23.14;61.24
71795;BME280;59641;45.188;5.712;2023-06-10T06:58:35;98898.25;;;23.08;61.06
71795;BME280;59641;45.188;5.712;2023-06-10T07:01:00;98893.13;;;23.07;61.37
71795;BME280;59641;45.188;5.712;2023-06-10T07:03:25;98899.41;;;23.07;61.37
71795;BME280;59641;45.188;5.712;2023-06-10T07:05:51;98899.03;;;23.00;61.51
71795;BME280;59641;45.188;5.712;2023-06-10T07:08:16;98887.28;;;23.00;61.74
71795;BME280;59641;45.188;5.712;2023-06-10T07:10:42;98891.31;;;23.02;61.65
71795;BME280;59641;45.188;5.712;2023-06-10T07:13:07;98892.78;;;23.08;61.23
71795;BME280;59641;45.188;5.712;2023-06-10T07:15:32;98892.50;;;23.10;61.46
71795;BME280;59641;45.188;5.712;2023-06-10T07:17:58;98895.88;;;23.15;61.35
71795;BME280;59641;45.188;5.712;2023-06-10T07:20:24;98898.81;;;23.19;61.14
71795;BME280;59641;45.188;5.712;2023-06-10T07:22:49;98893.84;;;23.21;60.98
71795;BME280;59641;45.188;5.712;2023-06-10T07:25:15;98894.63;;;23.22;60.93
71795;BME280;59641;45.188;5.712;2023-06-10T07:27:41;98894.16;;;23.20;60.83
71795;BME280;59641;45.188;5.712;2023-06-10T07:30:07;98891.09;;;23.21;60.98
71795;BME280;59641;45.188;5.712;2023-06-10T07:32:33;98886.09;;;23.23;60.88
71795;BME280;59641;45.188;5.712;2023-06-10T07:34:59;98891.47;;;23.28;60.87
71795;BME280;59641;45.188;5.712;2023-06-10T07:37:24;98888.88;;;23.32;60.74
71795;BME280;59641;45.188;5.712;2023-06-10T07:39:50;98886.31;;;23.35;60.43
71795;BME280;59641;45.188;5.712;2023-06-10T07:42:15;98887.63;;;23.38;60.11
71795;BME280;59641;45.188;5.712;2023-06-10T07:44:40;98883.44;;;23.41;60.22
71795;BME280;59641;45.188;5.712;2023-06-10T07:47:06;98882.00;;;23.43;60.37
71795;BME280;59641;45.188;5.712;2023-06-10T07:49:31;98880.22;;;23.47;60.14
71795;BME280;59641;45.188;5.712;2023-06-10T07:51:57;98884.75;;;23.52;59.75
71795;BME280;59641;45.188;5.712;2023-06-10T07:54:22;98883.50;;;23.58;59.79
71795;BME280;59641;45.188;5.712;2023-06-10T07:56:48;98877.06;;;23.63;59.76
71795;BME280;59641;45.188;5.712;2023-06-10T07:59:13;98875.28;;;23.67;59.62
71795;BME280;59641;45.188;5.712;2023-06-10T08:01:39;98871.59;;;23.71;59.51
71795;BME280;59641;45.188;5.712;2023-06-10T08:04:05;98876.16;;;23.76;59.23
71795;BME280;59641;45.188;5.712;2023-06-10T08:06:30;98875.19;;;23.80;59.12
71795;BME280;59641;45.188;5.712;2023-06-10T08:08:56;98860.06;;;23.83;59.06
71795;BME280;59641;45.188;5.712;2023-06-10T08:11:21;98869.25;;;23.87;58.64
71795;BME280;59641;45.188;5.712;2023-06-10T08:13:46;98867.00;;;23.89;58.60
71795;BME280;59641;45.188;5.712;2023-06-10T08:16:12;98863.31;;;23.94;58.24
71795;BME280;59641;45.188;5.712;2023-06-10T08:18:37;98864.25;;;23.98;57.95
71795;BME280;59641;45.188;5.712;2023-06-10T08:21:02;98858.97;;;24.01;57.82
71795;BME280;59641;45.188;5.712;2023-06-10T08:23:28;98859.09;;;24.05;57.83
71795;BME280;59641;45.188;5.712;2023-06-10T08:25:53;98858.97;;;24.10;57.65
71795;BME280;59641;45.188;5.712;2023-06-10T08:28:18;98859.44;;;24.12;57.58
71795;BME280;59641;45.188;5.712;2023-06-10T08:30:44;98860.72;;;24.15;57.31
71795;BME280;59641;45.188;5.712;2023-06-10T08:33:10;98857.34;;;24.18;57.28
71795;BME280;59641;45.188;5.712;2023-06-10T08:35:35;98855.56;;;24.22;56.84
71795;BME280;59641;45.188;5.712;2023-06-10T08:38:01;98857.19;;;24.23;56.47
71795;BME280;59641;45.188;5.712;2023-06-10T08:40:26;98858.63;;;24.29;56.31
71795;BME280;59641;45.188;5.712;2023-06-10T08:43:10;98860.56;;;24.29;55.66
71795;BME280;59641;45.188;5.712;2023-06-10T08:45:42;98864.94;;;24.30;55.22
71795;BME280;59641;45.188;5.712;2023-06-10T08:48:10;98858.31;;;24.31;55.06
71795;BME280;59641;45.188;5.712;2023-06-10T08:50:37;98860.09;;;24.35;55.41
71795;BME280;59641;45.188;5.712;2023-06-10T08:53:05;98848.31;;;24.35;54.28
71795;BME280;59641;45.188;5.712;2023-06-10T08:55:38;98855.09;;;24.37;54.82
71795;BME280;59641;45.188;5.712;2023-06-10T08:58:04;98853.94;;;24.38;55.16
71795;BME280;59641;45.188;5.712;2023-06-10T09:00:31;98854.44;;;24.40;55.12
71795;BME280;59641;45.188;5.712;2023-06-10T09:02:57;98854.63;;;24.44;55.21
71795;BME280;59641;45.188;5.712;2023-06-10T09:05:23;98851.25;;;24.47;55.34
71795;BME280;59641;45.188;5.712;2023-06-10T09:07:51;98848.31;;;24.52;55.01
71795;BME280;59641;45.188;5.712;2023-06-10T09:10:17;98851.69;;;24.58;55.09
71795;BME280;59641;45.188;5.712;2023-06-10T09:12:43;98837.00;;;24.62;55.21
71795;BME280;59641;45.188;5.712;2023-06-10T09:15:08;98840.25;;;24.64;54.46
71795;BME280;59641;45.188;5.712;2023-06-10T09:17:34;98842.81;;;24.70;53.33
71795;BME280;59641;45.188;5.712;2023-06-10T09:20:02;98833.94;;;24.73;53.14
71795;BME280;59641;45.188;5.712;2023-06-10T09:22:28;98829.06;;;24.78;53.42
71795;BME280;59641;45.188;5.712;2023-06-10T09:25:07;98836.34;;;24.83;53.28
71795;BME280;59641;45.188;5.712;2023-06-10T09:27:47;98825.50;;;24.86;53.63
71795;BME280;59641;45.188;5.712;2023-06-10T09:30:35;98831.16;;;24.90;53.03
71795;BME280;59641;45.188;5.712;2023-06-10T09:33:09;98828.53;;;24.94;53.53
71795;BME280;59641;45.188;5.712;2023-06-10T09:35:34;98826.75;;;24.98;53.45
71795;BME280;59641;45.188;5.712;2023-06-10T09:38:00;98832.84;;;25.03;53.43
71795;BME280;59641;45.188;5.712;2023-06-10T09:40:27;98832.34;;;25.10;53.74
71795;BME280;59641;45.188;5.712;2023-06-10T09:43:00;98832.69;;;25.17;53.77
71795;BME280;59641;45.188;5.712;2023-06-10T09:45:31;98825.88;;;25.23;53.53
71795;BME280;59641;45.188;5.712;2023-06-10T09:47:57;98829.56;;;25.27;53.21
71795;BME280;59641;45.188;5.712;2023-06-10T09:50:22;98828.56;;;25.32;53.47
71795;BME280;59641;45.188;5.712;2023-06-10T09:52:49;98827.56;;;25.37;53.06
71795;BME280;59641;45.188;5.712;2023-06-10T09:55:15;98832.06;;;25.41;53.13
71795;BME280;59641;45.188;5.712;2023-06-10T09:57:41;98834.16;;;25.44;52.51
71795;BME280;59641;45.188;5.712;2023-06-10T10:00:10;98831.09;;;25.46;52.19
71795;BME280;59641;45.188;5.712;2023-06-10T10:05:13;98823.94;;;25.54;52.05
71795;BME280;59641;45.188;5.712;2023-06-10T10:07:39;98820.50;;;25.57;51.99
71795;BME280;59641;45.188;5.712;2023-06-10T10:10:05;98821.47;;;25.61;52.08
71795;BME280;59641;45.188;5.712;2023-06-10T10:12:31;98810.94;;;25.63;52.14
71795;BME280;59641;45.188;5.712;2023-06-10T10:14:57;98811.91;;;25.67;51.97
71795;BME280;59641;45.188;5.712;2023-06-10T10:17:24;98810.44;;;25.69;51.69
71795;BME280;59641;45.188;5.712;2023-06-10T10:19:56;98810.22;;;25.75;52.40
71795;BME280;59641;45.188;5.712;2023-06-10T10:22:25;98810.03;;;25.80;52.14
71795;BME280;59641;45.188;5.712;2023-06-10T10:24:55;98809.03;;;25.84;52.13
71795;BME280;59641;45.188;5.712;2023-06-10T10:27:26;98808.53;;;25.91;51.96
71795;BME280;59641;45.188;5.712;2023-06-10T10:29:53;98806.69;;;25.95;51.24
71795;BME280;59641;45.188;5.712;2023-06-10T10:33:11;98796.31;;;26.01;51.33
71795;BME280;59641;45.188;5.712;2023-06-10T10:35:16;98800.44;;;26.07;50.99
71795;BME280;59641;45.188;5.712;2023-06-10T10:37:43;98794.75;;;26.12;51.17
71795;BME280;59641;45.188;5.712;2023-06-10T10:40:10;98806.84;;;26.20;50.41
71795;BME280;59641;45.188;5.712;2023-06-10T10:42:36;98794.81;;;26.24;50.45
71795;BME280;59641;45.188;5.712;2023-06-10T10:45:02;98797.34;;;26.29;49.35
71795;BME280;59641;45.188;5.712;2023-06-10T10:47:30;98783.41;;;26.34;49.27
71795;BME280;59641;45.188;5.712;2023-06-10T10:49:56;98787.19;;;26.42;49.88
71795;BME280;59641;45.188;5.712;2023-06-10T10:52:26;98780.78;;;26.50;50.28
71795;BME280;59641;45.188;5.712;2023-06-10T10:54:53;98779.47;;;26.56;49.22
71795;BME280;59641;45.188;5.712;2023-06-10T10:57:22;98780.41;;;26.61;48.80
71795;BME280;59641;45.188;5.712;2023-06-10T11:02:45;98771.38;;;26.72;49.16
71795;BME280;59641;45.188;5.712;2023-06-10T11:05:15;98768.72;;;26.76;48.71
71795;BME280;59641;45.188;5.712;2023-06-10T11:07:51;98762.66;;;26.83;48.18
71795;BME280;59641;45.188;5.712;2023-06-10T11:10:17;98770.91;;;26.83;47.89
71795;BME280;59641;45.188;5.712;2023-06-10T11:15:12;98762.44;;;26.88;48.05
71795;BME280;59641;45.188;5.712;2023-06-10T11:17:37;98766.13;;;26.92;47.67
71795;BME280;59641;45.188;5.712;2023-06-10T11:20:03;98753.16;;;26.92;47.65
71795;BME280;59641;45.188;5.712;2023-06-10T11:22:28;98747.31;;;26.94;47.25
71795;BME280;59641;45.188;5.712;2023-06-10T11:24:54;98748.09;;;26.94;47.19
71795;BME280;59641;45.188;5.712;2023-06-10T11:27:23;98746.16;;;26.95;46.23
71795;BME280;59641;45.188;5.712;2023-06-10T11:32:30;98741.91;;;26.97;46.59
71795;BME280;59641;45.188;5.712;2023-06-10T11:34:57;98746.72;;;27.01;45.95
71795;BME280;59641;45.188;5.712;2023-06-10T11:37:22;98740.53;;;27.04;47.25
71795;BME280;59641;45.188;5.712;2023-06-10T11:39:54;98738.13;;;27.14;47.59
71795;BME280;59641;45.188;5.712;2023-06-10T11:42:21;98733.78;;;27.26;46.62
71795;BME280;59641;45.188;5.712;2023-06-10T11:44:48;98735.34;;;27.39;46.18
71795;BME280;59641;45.188;5.712;2023-06-10T11:47:14;98729.03;;;27.51;45.53
71795;BME280;59641;45.188;5.712;2023-06-10T11:49:39;98729.69;;;27.60;46.48
71795;BME280;59641;45.188;5.712;2023-06-10T11:52:05;98725.97;;;27.68;46.40
71795;BME280;59641;45.188;5.712;2023-06-10T11:54:30;98721.50;;;27.76;45.60
71795;BME280;59641;45.188;5.712;2023-06-10T11:56:59;98717.31;;;27.82;44.90
71795;BME280;59641;45.188;5.712;2023-06-10T11:59:29;98711.25;;;27.89;45.04
71795;BME280;59641;45.188;5.712;2023-06-10T12:01:54;98714.47;;;27.91;43.01
71795;BME280;59641;45.188;5.712;2023-06-10T12:04:20;98710.91;;;27.90;43.15
71795;BME280;59641;45.188;5.712;2023-06-10T12:06:51;98703.44;;;27.91;43.95
71795;BME280;59641;45.188;5.712;2023-06-10T12:11:52;98696.28;;;27.90;44.13
71795;BME280;59641;45.188;5.712;2023-06-10T12:14:53;98704.22;;;27.91;44.44
71795;BME280;59641;45.188;5.712;2023-06-10T12:20:06;98695.41;;;27.86;43.74
71795;BME280;59641;45.188;5.712;2023-06-10T12:22:39;98695.41;;;27.86;43.41
71795;BME280;59641;45.188;5.712;2023-06-10T12:25:05;98697.72;;;27.83;43.28
71795;BME280;59641;45.188;5.712;2023-06-10T12:27:33;98695.75;;;27.84;43.79
71795;BME280;59641;45.188;5.712;2023-06-10T12:30:04;98694.25;;;27.87;44.06
71795;BME280;59641;45.188;5.712;2023-06-10T12:35:04;98685.28;;;27.90;43.37
71795;BME280;59641;45.188;5.712;2023-06-10T12:37:30;98685.38;;;27.93;43.95
71795;BME280;59641;45.188;5.712;2023-06-10T12:39:55;98683.88;;;27.96;43.03
71795;BME280;59641;45.188;5.712;2023-06-10T12:42:22;98681.56;;;27.98;43.23
71795;BME280;59641;45.188;5.712;2023-06-10T12:44:53;98676.13;;;28.01;43.82
71795;BME280;59641;45.188;5.712;2023-06-10T12:47:18;98675.78;;;28.03;44.00
71795;BME280;59641;45.188;5.712;2023-06-10T12:49:44;98671.41;;;28.02;43.13
71795;BME280;59641;45.188;5.712;2023-06-10T12:52:09;98674.63;;;28.04;43.65
71795;BME280;59641;45.188;5.712;2023-06-10T12:54:34;98676.59;;;28.03;42.40
71795;BME280;59641;45.188;5.712;2023-06-10T12:57:00;98678.56;;;28.03;42.48
71795;BME280;59641;45.188;5.712;2023-06-10T12:59:26;98666.34;;;28.04;42.27
71795;BME280;59641;45.188;5.712;2023-06-10T13:01:53;98669.56;;;28.06;42.75
71795;BME280;59641;45.188;5.712;2023-06-10T13:04:19;98669.56;;;28.06;41.05
71795;BME280;59641;45.188;5.712;2023-06-10T13:06:45;98674.63;;;28.04;41.33
71795;BME280;59641;45.188;5.712;2023-06-10T13:09:12;98666.72;;;28.02;41.65
71795;BME280;59641;45.188;5.712;2023-06-10T13:11:37;98662.34;;;28.01;41.30
71795;BME280;59641;45.188;5.712;2023-06-10T13:14:04;98668.31;;;28.03;41.52
71795;BME280;59641;45.188;5.712;2023-06-10T13:16:31;98665.66;;;28.07;41.90
71795;BME280;59641;45.188;5.712;2023-06-10T13:18:57;98662.28;;;28.14;41.79
71795;BME280;59641;45.188;5.712;2023-06-10T13:21:22;98663.19;;;28.18;40.52